Terminal Aerodrome Forecast
Issued by NWS

Home | Current Version | Previous Version | Text Only | Print | Product List | Glossary On
Versions: 1 2 3 4 5 6 7 8 9 10 11 12 13 14 15 16 17 18 19 20 21 22 23
000
FTUS43 KIND 210525
TAFBMG
TAF
KBMG 210525Z 2106/2206 VRB03KT P6SM SKC
     FM211100 00000KT 4SM BR SCT150
     FM211300 00000KT P6SM SCT140
     FM211600 19004KT P6SM SCT040
     FM220000 VRB03KT P6SM FEW200
      AMD LTD TO CLD VIS AND WIND TIL 211300=

USA.gov is the U.S. government's official web portal to all federal, state and local government web resources and services.